ICE113 BIKF-BGGH
Flight info
| Callsign | ICE113 |
|---|---|
| Flight time | 1h 51m |
| Altitude | 38000 |
| Route | SORIR2C SORIR DCT SOPEN DCT SABAG DCT NAPIB DCT INBAN DCT GETDA |
| Aircraft | A21N/M-SDE2E3FGHIRWXY/LB1 |
Departure
| Time | 2026-04-27 14:04 |
|---|---|
| Airport | Keflavik International Airport (BIKF) |
Arrival
| Time | 2026-04-27 15:56 |
|---|---|
| Airport | Nuuk International Airport (BGGH) |
| Time | Latitude | Longitude | Altitude | Speed | Heading |
|---|---|---|---|---|---|
| 2026-04-27 13:17 | 63.99484 | -22.62465 | 140 ft | 0 kts | 90° |
| 2026-04-27 13:56 | 63.99485 | -22.62518 | 140 ft | 4 kts | 97° |
| 2026-04-27 13:56 | 63.99489 | -22.62578 | 140 ft | 4 kts | 110° |
| 2026-04-27 13:56 | 63.99500 | -22.62631 | 140 ft | 4 kts | 140° |
| 2026-04-27 13:57 | 63.99515 | -22.62653 | 140 ft | 1 kts | 180° |
| 2026-04-27 13:57 | 63.99519 | -22.62653 | 140 ft | 0 kts | 180° |
| 2026-04-27 13:59 | 63.99510 | -22.62653 | 140 ft | 3 kts | 179° |
| 2026-04-27 13:59 | 63.99478 | -22.62651 | 140 ft | 9 kts | 179° |
| 2026-04-27 14:00 | 63.99413 | -22.62694 | 140 ft | 10 kts | 204° |
| 2026-04-27 14:00 | 63.99372 | -22.62733 | 140 ft | 5 kts | 202° |
| 2026-04-27 14:00 | 63.99342 | -22.62742 | 140 ft | 3 kts | 182° |
| 2026-04-27 14:00 | 63.99325 | -22.62743 | 140 ft | 1 kts | 181° |
| 2026-04-27 14:01 | 63.99319 | -22.62743 | 140 ft | 1 kts | 180° |
| 2026-04-27 14:01 | 63.99285 | -22.62743 | 140 ft | 9 kts | 176° |
| 2026-04-27 14:01 | 63.99209 | -22.62677 | 140 ft | 14 kts | 172° |
| 2026-04-27 14:01 | 63.99169 | -22.62549 | 140 ft | 16 kts | 96° |
| 2026-04-27 14:02 | 63.99172 | -22.62253 | 140 ft | 20 kts | 90° |
| 2026-04-27 14:02 | 63.99173 | -22.61851 | 142 ft | 31 kts | 90° |
| 2026-04-27 14:02 | 63.99173 | -22.61367 | 152 ft | 30 kts | 90° |
| 2026-04-27 14:02 | 63.99173 | -22.60967 | 160 ft | 22 kts | 90° |
| 2026-04-27 14:03 | 63.99170 | -22.60658 | 170 ft | 16 kts | 91° |
| 2026-04-27 14:03 | 63.99152 | -22.60549 | 173 ft | 5 kts | 146° |
| 2026-04-27 14:03 | 63.99106 | -22.60540 | 174 ft | 0 kts | 179° |
| 2026-04-27 14:04 | 63.98882 | -22.60540 | 173 ft | 69 kts | 180° |
| 2026-04-27 14:04 | 63.98188 | -22.60543 | 173 ft | 127 kts | 180° |
| 2026-04-27 14:04 | 63.97207 | -22.60585 | 623 ft | 141 kts | 178° |
| 2026-04-27 14:04 | 63.96184 | -22.60633 | 1245 ft | 151 kts | 180° |
| 2026-04-27 14:05 | 63.95126 | -22.60632 | 1988 ft | 160 kts | 180° |
| 2026-04-27 14:05 | 63.93875 | -22.60591 | 2146 ft | 197 kts | 180° |
| 2026-04-27 14:05 | 63.92490 | -22.60552 | 2957 ft | 200 kts | 182° |
| 2026-04-27 14:05 | 63.91196 | -22.61204 | 4284 ft | 188 kts | 203° |
| 2026-04-27 14:06 | 63.90120 | -22.62996 | 5216 ft | 199 kts | 224° |
| 2026-04-27 14:06 | 63.89438 | -22.65805 | 6231 ft | 210 kts | 245° |
| 2026-04-27 14:06 | 63.89295 | -22.69237 | 7156 ft | 226 kts | 261° |
| 2026-04-27 14:06 | 63.89332 | -22.72965 | 7742 ft | 247 kts | 261° |
| 2026-04-27 14:07 | 63.89403 | -22.76971 | 8378 ft | 266 kts | 268° |
| 2026-04-27 14:07 | 63.89922 | -22.81146 | 9313 ft | 284 kts | 284° |
| 2026-04-27 14:07 | 63.90955 | -22.85141 | 10204 ft | 299 kts | 293° |
| 2026-04-27 14:07 | 63.92123 | -22.89271 | 10606 ft | 321 kts | 293° |
| 2026-04-27 14:08 | 63.93361 | -22.93711 | 10972 ft | 342 kts | 294° |
| 2026-04-27 14:08 | 63.94637 | -22.98277 | 11695 ft | 348 kts | 294° |
| 2026-04-27 14:08 | 63.95942 | -23.02948 | 12543 ft | 351 kts | 293° |
| 2026-04-27 14:08 | 63.97259 | -23.07683 | 13364 ft | 355 kts | 293° |
| 2026-04-27 14:09 | 63.98582 | -23.12466 | 14114 ft | 358 kts | 293° |
| 2026-04-27 14:09 | 63.99912 | -23.17286 | 14883 ft | 360 kts | 293° |
| 2026-04-27 14:09 | 64.01249 | -23.22146 | 15614 ft | 362 kts | 292° |
| 2026-04-27 14:09 | 64.02589 | -23.27030 | 16360 ft | 365 kts | 292° |
| 2026-04-27 14:10 | 64.03926 | -23.31912 | 17067 ft | 367 kts | 292° |
| 2026-04-27 14:10 | 64.05283 | -23.36881 | 17758 ft | 370 kts | 292° |
| 2026-04-27 14:10 | 64.06647 | -23.41886 | 18400 ft | 373 kts | 292° |
| 2026-04-27 14:10 | 64.08023 | -23.46951 | 18976 ft | 376 kts | 292° |
| 2026-04-27 14:11 | 64.09405 | -23.52049 | 19556 ft | 380 kts | 292° |
| 2026-04-27 14:11 | 64.10809 | -23.57242 | 20121 ft | 383 kts | 292° |
| 2026-04-27 14:11 | 64.12216 | -23.62455 | 20682 ft | 386 kts | 292° |
| 2026-04-27 14:11 | 64.13632 | -23.67711 | 21240 ft | 389 kts | 292° |
| 2026-04-27 14:12 | 64.15060 | -23.73026 | 21779 ft | 393 kts | 292° |
| 2026-04-27 14:12 | 64.16499 | -23.78390 | 22318 ft | 396 kts | 292° |
| 2026-04-27 14:12 | 64.17931 | -23.83744 | 22836 ft | 399 kts | 292° |
| 2026-04-27 14:12 | 64.19389 | -23.89202 | 23373 ft | 403 kts | 292° |
| 2026-04-27 14:13 | 64.20856 | -23.94705 | 23816 ft | 406 kts | 292° |
| 2026-04-27 14:13 | 64.22333 | -24.00260 | 24252 ft | 409 kts | 292° |
| 2026-04-27 14:13 | 64.23818 | -24.05856 | 24683 ft | 411 kts | 292° |
| 2026-04-27 14:13 | 64.25308 | -24.11489 | 25093 ft | 414 kts | 292° |
| 2026-04-27 14:14 | 64.26814 | -24.17196 | 25502 ft | 417 kts | 292° |
| 2026-04-27 14:14 | 64.28325 | -24.22937 | 25901 ft | 420 kts | 292° |
| 2026-04-27 14:14 | 64.29823 | -24.28645 | 26285 ft | 422 kts | 291° |
| 2026-04-27 14:14 | 64.31355 | -24.34493 | 26678 ft | 425 kts | 291° |
| 2026-04-27 14:15 | 64.32885 | -24.40348 | 27063 ft | 427 kts | 291° |
| 2026-04-27 14:15 | 64.34420 | -24.46243 | 27423 ft | 430 kts | 291° |
| 2026-04-27 14:15 | 64.35962 | -24.52175 | 27800 ft | 432 kts | 291° |
| 2026-04-27 14:15 | 64.37512 | -24.58159 | 28153 ft | 435 kts | 291° |
| 2026-04-27 14:16 | 64.38532 | -24.62133 | 28382 ft | 435 kts | 290° |
| 2026-04-27 14:16 | 64.39930 | -24.68316 | 28700 ft | 432 kts | 285° |
| 2026-04-27 14:16 | 64.41452 | -24.76752 | 28723 ft | 425 kts | 279° |
| 2026-04-27 14:17 | 64.42969 | -24.87557 | 28718 ft | 423 kts | 278° |
| 2026-04-27 14:17 | 64.44768 | -25.00525 | 28713 ft | 423 kts | 278° |
| 2026-04-27 14:18 | 64.46569 | -25.13517 | 28708 ft | 423 kts | 278° |
| 2026-04-27 14:18 | 64.48360 | -25.26532 | 28702 ft | 424 kts | 278° |
| 2026-04-27 14:19 | 64.50144 | -25.39592 | 28695 ft | 424 kts | 277° |
| 2026-04-27 14:19 | 64.51902 | -25.52563 | 28693 ft | 424 kts | 277° |
| 2026-04-27 14:20 | 64.53665 | -25.65669 | 28687 ft | 424 kts | 277° |
| 2026-04-27 14:20 | 64.55416 | -25.78799 | 28682 ft | 425 kts | 277° |
| 2026-04-27 14:21 | 64.57156 | -25.91937 | 28678 ft | 425 kts | 277° |
| 2026-04-27 14:21 | 64.58887 | -26.05129 | 28678 ft | 426 kts | 276° |
| 2026-04-27 14:22 | 64.60607 | -26.18332 | 28667 ft | 426 kts | 276° |
| 2026-04-27 14:22 | 64.62319 | -26.31581 | 28668 ft | 427 kts | 276° |
| 2026-04-27 14:23 | 64.64018 | -26.44841 | 28655 ft | 427 kts | 276° |
| 2026-04-27 14:23 | 64.65712 | -26.58164 | 28657 ft | 428 kts | 276° |
| 2026-04-27 14:24 | 64.67385 | -26.71442 | 28652 ft | 429 kts | 276° |
| 2026-04-27 14:24 | 64.69060 | -26.84842 | 28645 ft | 429 kts | 275° |
| 2026-04-27 14:25 | 64.70581 | -26.98294 | 28640 ft | 424 kts | 271° |
| 2026-04-27 14:25 | 64.71850 | -27.11722 | 28637 ft | 425 kts | 272° |
| 2026-04-27 14:26 | 64.73149 | -27.25261 | 28634 ft | 426 kts | 272° |
| 2026-04-27 14:26 | 64.74447 | -27.38819 | 28630 ft | 427 kts | 271° |
| 2026-04-27 14:27 | 64.75733 | -27.52444 | 28626 ft | 428 kts | 271° |
| 2026-04-27 14:27 | 64.76992 | -27.65997 | 28622 ft | 429 kts | 271° |
| 2026-04-27 14:28 | 64.78247 | -27.79675 | 28608 ft | 429 kts | 271° |
| 2026-04-27 14:28 | 64.79495 | -27.93431 | 28641 ft | 432 kts | 271° |
| 2026-04-27 14:28 | 64.80115 | -28.00334 | 28971 ft | 433 kts | 271° |
| 2026-04-27 14:29 | 64.80737 | -28.07273 | 29302 ft | 435 kts | 270° |
| 2026-04-27 14:29 | 64.81359 | -28.14258 | 29596 ft | 437 kts | 270° |
| 2026-04-27 14:29 | 64.81980 | -28.21285 | 29877 ft | 439 kts | 270° |
| 2026-04-27 14:29 | 64.82599 | -28.28323 | 30171 ft | 441 kts | 270° |
| 2026-04-27 14:30 | 64.83218 | -28.35400 | 30455 ft | 442 kts | 270° |
| 2026-04-27 14:30 | 64.83825 | -28.42389 | 30735 ft | 443 kts | 270° |
| 2026-04-27 14:30 | 64.84439 | -28.49483 | 31095 ft | 443 kts | 270° |
| 2026-04-27 14:30 | 64.85050 | -28.56565 | 31494 ft | 441 kts | 270° |
| 2026-04-27 14:31 | 64.85655 | -28.63626 | 31892 ft | 439 kts | 270° |
| 2026-04-27 14:31 | 64.86252 | -28.70657 | 32262 ft | 438 kts | 270° |
| 2026-04-27 14:31 | 64.86843 | -28.77664 | 32637 ft | 436 kts | 270° |
| 2026-04-27 14:31 | 64.87430 | -28.84675 | 33003 ft | 435 kts | 270° |
| 2026-04-27 14:32 | 64.88011 | -28.91657 | 33345 ft | 434 kts | 270° |
| 2026-04-27 14:32 | 64.88588 | -28.98637 | 33663 ft | 433 kts | 270° |
| 2026-04-27 14:32 | 64.89160 | -29.05607 | 33893 ft | 433 kts | 270° |
| 2026-04-27 14:32 | 64.89720 | -29.12490 | 34099 ft | 434 kts | 270° |
| 2026-04-27 14:33 | 64.90286 | -29.19476 | 34300 ft | 435 kts | 270° |
| 2026-04-27 14:33 | 64.90850 | -29.26470 | 34496 ft | 435 kts | 270° |
| 2026-04-27 14:33 | 64.91414 | -29.33497 | 34692 ft | 436 kts | 270° |
| 2026-04-27 14:33 | 64.91976 | -29.40539 | 34900 ft | 436 kts | 270° |
| 2026-04-27 14:34 | 64.92534 | -29.47576 | 35093 ft | 437 kts | 270° |
| 2026-04-27 14:34 | 64.93090 | -29.54631 | 35264 ft | 438 kts | 271° |
| 2026-04-27 14:34 | 64.93644 | -29.61712 | 35442 ft | 439 kts | 271° |
| 2026-04-27 14:34 | 64.94194 | -29.68784 | 35621 ft | 439 kts | 271° |
| 2026-04-27 14:35 | 64.94744 | -29.75888 | 35800 ft | 440 kts | 271° |
| 2026-04-27 14:35 | 64.95290 | -29.82995 | 35968 ft | 440 kts | 271° |
| 2026-04-27 14:35 | 64.95833 | -29.90104 | 36140 ft | 441 kts | 271° |
| 2026-04-27 14:35 | 64.96375 | -29.97254 | 36314 ft | 441 kts | 271° |
| 2026-04-27 14:36 | 64.96907 | -30.04317 | 36471 ft | 442 kts | 271° |
| 2026-04-27 14:36 | 64.97441 | -30.11460 | 36630 ft | 442 kts | 271° |
| 2026-04-27 14:36 | 64.97974 | -30.18632 | 36786 ft | 442 kts | 271° |
| 2026-04-27 14:36 | 64.98502 | -30.25783 | 36944 ft | 443 kts | 271° |
| 2026-04-27 14:37 | 64.99028 | -30.32954 | 37095 ft | 443 kts | 271° |
| 2026-04-27 14:37 | 64.99552 | -30.40156 | 37241 ft | 443 kts | 271° |
| 2026-04-27 14:37 | 65.00070 | -30.47328 | 37386 ft | 444 kts | 271° |
| 2026-04-27 14:37 | 65.00586 | -30.54521 | 37521 ft | 444 kts | 271° |
| 2026-04-27 14:38 | 65.01099 | -30.61716 | 37540 ft | 444 kts | 271° |
| 2026-04-27 14:38 | 65.02115 | -30.76108 | 37532 ft | 443 kts | 271° |
| 2026-04-27 14:39 | 65.03116 | -30.90501 | 37528 ft | 443 kts | 271° |
| 2026-04-27 14:39 | 65.04105 | -31.04935 | 37525 ft | 444 kts | 271° |
| 2026-04-27 14:40 | 65.05076 | -31.19323 | 37527 ft | 444 kts | 271° |
| 2026-04-27 14:40 | 65.06038 | -31.33787 | 37519 ft | 444 kts | 270° |
| 2026-04-27 14:41 | 65.06985 | -31.48259 | 37514 ft | 444 kts | 270° |
| 2026-04-27 14:41 | 65.07914 | -31.62670 | 37504 ft | 445 kts | 270° |
| 2026-04-27 14:42 | 65.08834 | -31.77190 | 37503 ft | 445 kts | 270° |
| 2026-04-27 14:42 | 65.09741 | -31.91728 | 37496 ft | 445 kts | 270° |
| 2026-04-27 14:43 | 65.10634 | -32.06278 | 37502 ft | 445 kts | 270° |
| 2026-04-27 14:43 | 65.11510 | -32.20777 | 37487 ft | 446 kts | 270° |
| 2026-04-27 14:44 | 65.12375 | -32.35354 | 37483 ft | 446 kts | 270° |
| 2026-04-27 14:44 | 65.13227 | -32.49958 | 37470 ft | 446 kts | 270° |
| 2026-04-27 14:45 | 65.14064 | -32.64566 | 37473 ft | 446 kts | 270° |
| 2026-04-27 14:45 | 65.14885 | -32.79143 | 37463 ft | 446 kts | 269° |
| 2026-04-27 14:46 | 65.15694 | -32.93765 | 37456 ft | 446 kts | 269° |
| 2026-04-27 14:46 | 65.16492 | -33.08467 | 37451 ft | 447 kts | 269° |
| 2026-04-27 14:47 | 65.17274 | -33.23138 | 37449 ft | 447 kts | 269° |
| 2026-04-27 14:47 | 65.18040 | -33.37745 | 37441 ft | 448 kts | 269° |
| 2026-04-27 14:48 | 65.18798 | -33.52476 | 37452 ft | 448 kts | 269° |
| 2026-04-27 14:48 | 65.19904 | -33.74597 | 37424 ft | 449 kts | 269° |
| 2026-04-27 14:49 | 65.20620 | -33.89287 | 37425 ft | 449 kts | 269° |
| 2026-04-27 14:49 | 65.21328 | -34.04112 | 37426 ft | 449 kts | 269° |
| 2026-04-27 14:50 | 65.22022 | -34.18949 | 37417 ft | 450 kts | 269° |
| 2026-04-27 14:50 | 65.22696 | -34.33708 | 37417 ft | 450 kts | 269° |
| 2026-04-27 14:51 | 65.23360 | -34.48553 | 37412 ft | 450 kts | 269° |
| 2026-04-27 14:51 | 65.23901 | -34.60894 | 37408 ft | 450 kts | 269° |
| 2026-04-27 14:52 | 65.24645 | -34.78272 | 37403 ft | 450 kts | 268° |
| 2026-04-27 14:52 | 65.25265 | -34.93153 | 37403 ft | 450 kts | 268° |
| 2026-04-27 14:53 | 65.25871 | -35.08044 | 37401 ft | 451 kts | 268° |
| 2026-04-27 14:53 | 65.26454 | -35.22883 | 37398 ft | 450 kts | 268° |
| 2026-04-27 14:54 | 65.26805 | -35.37771 | 37392 ft | 447 kts | 264° |
| 2026-04-27 14:54 | 65.26951 | -35.52638 | 37384 ft | 447 kts | 264° |
| 2026-04-27 14:55 | 65.27114 | -35.67485 | 37384 ft | 447 kts | 264° |
| 2026-04-27 14:55 | 65.27274 | -35.82367 | 37382 ft | 447 kts | 264° |
| 2026-04-27 14:56 | 65.27413 | -35.97228 | 37369 ft | 448 kts | 264° |
| 2026-04-27 14:56 | 65.27531 | -36.12023 | 37370 ft | 448 kts | 264° |
| 2026-04-27 14:57 | 65.27635 | -36.26905 | 37370 ft | 448 kts | 264° |
| 2026-04-27 14:57 | 65.27725 | -36.41816 | 37363 ft | 449 kts | 264° |
| 2026-04-27 14:58 | 65.27800 | -36.56723 | 37359 ft | 449 kts | 264° |
| 2026-04-27 14:58 | 65.27860 | -36.71618 | 37355 ft | 449 kts | 264° |
| 2026-04-27 14:59 | 65.27906 | -36.86536 | 37351 ft | 449 kts | 263° |
| 2026-04-27 14:59 | 65.27936 | -37.01478 | 37338 ft | 450 kts | 263° |
| 2026-04-27 15:00 | 65.27953 | -37.16425 | 37330 ft | 450 kts | 263° |
| 2026-04-27 15:00 | 65.27954 | -37.31281 | 37329 ft | 450 kts | 263° |
| 2026-04-27 15:01 | 65.27940 | -37.46235 | 37318 ft | 450 kts | 263° |
| 2026-04-27 15:01 | 65.27911 | -37.61228 | 37318 ft | 451 kts | 263° |
| 2026-04-27 15:02 | 65.27868 | -37.76258 | 37307 ft | 451 kts | 263° |
| 2026-04-27 15:02 | 65.27809 | -37.91186 | 37300 ft | 452 kts | 263° |
| 2026-04-27 15:03 | 65.27736 | -38.06228 | 37297 ft | 452 kts | 263° |
| 2026-04-27 15:03 | 65.27663 | -38.18747 | 37290 ft | 453 kts | 263° |
| 2026-04-27 15:04 | 65.27562 | -38.33819 | 37282 ft | 453 kts | 263° |
| 2026-04-27 15:04 | 65.27445 | -38.48884 | 37277 ft | 454 kts | 263° |
| 2026-04-27 15:05 | 65.27313 | -38.63964 | 37268 ft | 454 kts | 263° |
| 2026-04-27 15:05 | 65.27167 | -38.79032 | 37266 ft | 454 kts | 263° |
| 2026-04-27 15:06 | 65.27006 | -38.94087 | 37260 ft | 453 kts | 263° |
| 2026-04-27 15:06 | 65.26829 | -39.09140 | 37255 ft | 453 kts | 263° |
| 2026-04-27 15:07 | 65.26639 | -39.24114 | 37249 ft | 453 kts | 263° |
| 2026-04-27 15:07 | 65.26432 | -39.39165 | 37250 ft | 453 kts | 263° |
| 2026-04-27 15:08 | 65.26210 | -39.54222 | 37258 ft | 454 kts | 263° |
| 2026-04-27 15:08 | 65.25973 | -39.69291 | 37258 ft | 454 kts | 263° |
| 2026-04-27 15:09 | 65.25722 | -39.84346 | 37259 ft | 454 kts | 263° |
| 2026-04-27 15:09 | 65.25455 | -39.99439 | 37260 ft | 454 kts | 262° |
| 2026-04-27 15:10 | 65.25172 | -40.14536 | 37267 ft | 455 kts | 262° |
| 2026-04-27 15:10 | 65.24874 | -40.29551 | 37258 ft | 456 kts | 262° |
| 2026-04-27 15:11 | 65.24563 | -40.44656 | 37250 ft | 456 kts | 262° |
| 2026-04-27 15:11 | 65.24236 | -40.59757 | 37240 ft | 456 kts | 262° |
| 2026-04-27 15:12 | 65.23893 | -40.74859 | 37237 ft | 456 kts | 262° |
| 2026-04-27 15:12 | 65.23535 | -40.89962 | 37236 ft | 456 kts | 262° |
| 2026-04-27 15:13 | 65.23162 | -41.05066 | 37237 ft | 456 kts | 262° |
| 2026-04-27 15:13 | 65.22774 | -41.20150 | 37231 ft | 456 kts | 262° |
| 2026-04-27 15:14 | 65.22369 | -41.35257 | 37228 ft | 455 kts | 261° |
| 2026-04-27 15:14 | 65.21953 | -41.50213 | 37220 ft | 455 kts | 261° |
| 2026-04-27 15:15 | 65.21520 | -41.65245 | 37212 ft | 454 kts | 261° |
| 2026-04-27 15:15 | 65.21072 | -41.80294 | 37204 ft | 454 kts | 261° |
| 2026-04-27 15:16 | 65.20611 | -41.95276 | 37198 ft | 453 kts | 261° |
| 2026-04-27 15:16 | 65.20136 | -42.10201 | 37194 ft | 453 kts | 261° |
| 2026-04-27 15:17 | 65.19645 | -42.25176 | 37194 ft | 453 kts | 261° |
| 2026-04-27 15:17 | 65.19138 | -42.40163 | 37196 ft | 453 kts | 261° |
| 2026-04-27 15:18 | 65.18615 | -42.55129 | 37195 ft | 453 kts | 261° |
| 2026-04-27 15:18 | 65.18078 | -42.70099 | 37197 ft | 453 kts | 261° |
| 2026-04-27 15:19 | 65.17526 | -42.85051 | 37203 ft | 454 kts | 261° |
| 2026-04-27 15:19 | 65.16963 | -42.99902 | 37206 ft | 454 kts | 261° |
| 2026-04-27 15:20 | 65.16379 | -43.14898 | 37197 ft | 455 kts | 261° |
| 2026-04-27 15:20 | 65.15781 | -43.29874 | 37211 ft | 455 kts | 261° |
| 2026-04-27 15:21 | 65.15169 | -43.44876 | 37213 ft | 455 kts | 261° |
| 2026-04-27 15:21 | 65.14551 | -43.59864 | 37230 ft | 456 kts | 261° |
| 2026-04-27 15:22 | 65.13976 | -43.74805 | 37227 ft | 456 kts | 262° |
| 2026-04-27 15:22 | 65.13473 | -43.89837 | 37237 ft | 457 kts | 263° |
| 2026-04-27 15:23 | 65.13038 | -44.04903 | 37248 ft | 457 kts | 263° |
| 2026-04-27 15:23 | 65.12602 | -44.19957 | 37256 ft | 457 kts | 263° |
| 2026-04-27 15:24 | 65.12138 | -44.35014 | 37265 ft | 457 kts | 263° |
| 2026-04-27 15:24 | 65.11655 | -44.50047 | 37277 ft | 456 kts | 263° |
| 2026-04-27 15:25 | 65.11159 | -44.64980 | 37296 ft | 456 kts | 263° |
| 2026-04-27 15:25 | 65.10646 | -44.79987 | 37308 ft | 456 kts | 262° |
| 2026-04-27 15:26 | 65.10119 | -44.94983 | 37325 ft | 455 kts | 262° |
| 2026-04-27 15:26 | 65.09577 | -45.09965 | 37343 ft | 455 kts | 262° |
| 2026-04-27 15:27 | 65.09021 | -45.24906 | 37361 ft | 454 kts | 262° |
| 2026-04-27 15:27 | 65.08450 | -45.39825 | 37384 ft | 453 kts | 262° |
| 2026-04-27 15:28 | 65.07867 | -45.54710 | 37406 ft | 453 kts | 262° |
| 2026-04-27 15:28 | 65.07272 | -45.69459 | 37424 ft | 452 kts | 262° |
| 2026-04-27 15:29 | 65.06660 | -45.84276 | 37452 ft | 451 kts | 262° |
| 2026-04-27 15:29 | 65.06035 | -45.99051 | 37460 ft | 450 kts | 262° |
| 2026-04-27 15:30 | 65.05395 | -46.13816 | 37481 ft | 450 kts | 262° |
| 2026-04-27 15:30 | 65.04740 | -46.28570 | 37509 ft | 449 kts | 262° |
| 2026-04-27 15:31 | 65.04074 | -46.43268 | 37534 ft | 449 kts | 262° |
| 2026-04-27 15:31 | 65.03391 | -46.57977 | 37553 ft | 449 kts | 262° |
| 2026-04-27 15:32 | 65.02699 | -46.72572 | 37581 ft | 449 kts | 262° |
| 2026-04-27 15:32 | 65.01990 | -46.87234 | 37612 ft | 449 kts | 262° |
| 2026-04-27 15:33 | 65.01268 | -47.01895 | 37634 ft | 449 kts | 262° |
| 2026-04-27 15:33 | 65.00530 | -47.16559 | 37659 ft | 449 kts | 262° |
| 2026-04-27 15:34 | 64.99777 | -47.31221 | 37681 ft | 449 kts | 262° |
| 2026-04-27 15:34 | 64.99010 | -47.45874 | 37705 ft | 449 kts | 262° |
| 2026-04-27 15:35 | 64.98229 | -47.60501 | 37723 ft | 449 kts | 262° |
| 2026-04-27 15:35 | 64.97439 | -47.75033 | 37747 ft | 449 kts | 262° |
| 2026-04-27 15:36 | 64.96630 | -47.89648 | 37762 ft | 449 kts | 262° |
| 2026-04-27 15:36 | 64.95807 | -48.04245 | 37775 ft | 448 kts | 262° |
| 2026-04-27 15:37 | 64.94969 | -48.18849 | 37790 ft | 448 kts | 262° |
| 2026-04-27 15:37 | 64.94123 | -48.33321 | 37805 ft | 447 kts | 262° |
| 2026-04-27 15:38 | 64.93260 | -48.47849 | 37821 ft | 447 kts | 262° |
| 2026-04-27 15:38 | 64.92384 | -48.62355 | 37829 ft | 446 kts | 262° |
| 2026-04-27 15:39 | 64.91494 | -48.76838 | 37811 ft | 445 kts | 262° |
| 2026-04-27 15:39 | 64.91046 | -48.84029 | 37482 ft | 442 kts | 262° |
| 2026-04-27 15:39 | 64.90597 | -48.91193 | 36754 ft | 444 kts | 262° |
| 2026-04-27 15:40 | 64.90138 | -48.98451 | 35772 ft | 450 kts | 262° |
| 2026-04-27 15:40 | 64.89675 | -49.05729 | 34709 ft | 458 kts | 262° |
| 2026-04-27 15:40 | 64.89198 | -49.13147 | 33866 ft | 456 kts | 262° |
| 2026-04-27 15:40 | 64.88725 | -49.20453 | 33158 ft | 445 kts | 262° |
| 2026-04-27 15:41 | 64.88260 | -49.27565 | 32605 ft | 439 kts | 262° |
| 2026-04-27 15:41 | 64.87789 | -49.34728 | 32057 ft | 447 kts | 262° |
| 2026-04-27 15:41 | 64.87305 | -49.42030 | 31511 ft | 452 kts | 262° |
| 2026-04-27 15:41 | 64.86818 | -49.49325 | 30993 ft | 450 kts | 262° |
| 2026-04-27 15:42 | 64.86329 | -49.56585 | 30452 ft | 448 kts | 262° |
| 2026-04-27 15:42 | 64.85841 | -49.63781 | 29947 ft | 443 kts | 262° |
| 2026-04-27 15:42 | 64.85363 | -49.70782 | 29320 ft | 437 kts | 262° |
| 2026-04-27 15:42 | 64.84874 | -49.77939 | 28688 ft | 435 kts | 262° |
| 2026-04-27 15:43 | 64.84416 | -49.84652 | 28099 ft | 432 kts | 261° |
| 2026-04-27 15:43 | 64.83933 | -49.91597 | 27500 ft | 428 kts | 259° |
| 2026-04-27 15:43 | 64.83258 | -49.98397 | 26916 ft | 425 kts | 253° |
| 2026-04-27 15:43 | 64.82318 | -50.04944 | 26336 ft | 421 kts | 248° |
| 2026-04-27 15:44 | 64.81113 | -50.11193 | 25604 ft | 416 kts | 243° |
| 2026-04-27 15:44 | 64.79867 | -50.17281 | 24904 ft | 412 kts | 243° |
| 2026-04-27 15:44 | 64.78649 | -50.23330 | 24236 ft | 407 kts | 243° |
| 2026-04-27 15:44 | 64.77465 | -50.29227 | 23586 ft | 403 kts | 243° |
| 2026-04-27 15:45 | 64.76274 | -50.35135 | 22795 ft | 398 kts | 243° |
| 2026-04-27 15:45 | 64.75094 | -50.40942 | 22014 ft | 391 kts | 243° |
| 2026-04-27 15:45 | 64.73930 | -50.46639 | 21331 ft | 385 kts | 243° |
| 2026-04-27 15:45 | 64.72775 | -50.52259 | 20649 ft | 381 kts | 243° |
| 2026-04-27 15:46 | 64.71630 | -50.57811 | 19987 ft | 377 kts | 244° |
| 2026-04-27 15:46 | 64.70494 | -50.63306 | 19360 ft | 373 kts | 244° |
| 2026-04-27 15:46 | 64.69368 | -50.68738 | 18759 ft | 369 kts | 244° |
| 2026-04-27 15:46 | 64.68250 | -50.74127 | 18159 ft | 366 kts | 245° |
| 2026-04-27 15:47 | 64.67142 | -50.79444 | 17467 ft | 363 kts | 245° |
| 2026-04-27 15:47 | 64.66035 | -50.84712 | 16793 ft | 360 kts | 246° |
| 2026-04-27 15:47 | 64.64956 | -50.89870 | 16138 ft | 356 kts | 246° |
| 2026-04-27 15:47 | 64.63881 | -50.95030 | 15480 ft | 351 kts | 247° |
| 2026-04-27 15:48 | 64.62810 | -51.00158 | 14834 ft | 349 kts | 247° |
| 2026-04-27 15:48 | 64.62105 | -51.03522 | 14454 ft | 347 kts | 248° |
| 2026-04-27 15:48 | 64.61047 | -51.08547 | 13892 ft | 343 kts | 248° |
| 2026-04-27 15:49 | 64.58619 | -51.20078 | 12441 ft | 337 kts | 249° |
| 2026-04-27 15:49 | 64.57924 | -51.23373 | 12033 ft | 334 kts | 249° |
| 2026-04-27 15:49 | 64.56914 | -51.28155 | 11436 ft | 331 kts | 249° |
| 2026-04-27 15:49 | 64.55905 | -51.32912 | 10851 ft | 329 kts | 249° |
| 2026-04-27 15:50 | 64.54891 | -51.37639 | 10260 ft | 326 kts | 246° |
| 2026-04-27 15:50 | 64.53447 | -51.41690 | 9676 ft | 328 kts | 222° |
| 2026-04-27 15:50 | 64.51437 | -51.44120 | 9042 ft | 327 kts | 199° |
| 2026-04-27 15:50 | 64.49242 | -51.45466 | 8305 ft | 323 kts | 197° |
| 2026-04-27 15:51 | 64.47089 | -51.46863 | 7525 ft | 319 kts | 199° |
| 2026-04-27 15:51 | 64.45010 | -51.48425 | 6767 ft | 316 kts | 200° |
| 2026-04-27 15:51 | 64.42930 | -51.49997 | 6004 ft | 312 kts | 200° |
| 2026-04-27 15:51 | 64.40880 | -51.51559 | 5230 ft | 308 kts | 199° |
| 2026-04-27 15:52 | 64.38863 | -51.53085 | 4565 ft | 301 kts | 199° |
| 2026-04-27 15:52 | 64.36911 | -51.54558 | 4106 ft | 288 kts | 199° |
| 2026-04-27 15:52 | 64.35043 | -51.55967 | 3687 ft | 276 kts | 200° |
| 2026-04-27 15:52 | 64.33273 | -51.57298 | 3289 ft | 265 kts | 200° |
| 2026-04-27 15:53 | 64.31547 | -51.58598 | 2901 ft | 256 kts | 200° |
| 2026-04-27 15:53 | 64.29884 | -51.59849 | 2531 ft | 246 kts | 200° |
| 2026-04-27 15:53 | 64.28322 | -51.61020 | 2178 ft | 225 kts | 200° |
| 2026-04-27 15:53 | 64.26919 | -51.62072 | 1883 ft | 200 kts | 201° |
| 2026-04-27 15:54 | 64.25656 | -51.63017 | 1579 ft | 181 kts | 201° |
| 2026-04-27 15:54 | 64.24531 | -51.63861 | 1296 ft | 162 kts | 201° |
| 2026-04-27 15:54 | 64.23503 | -51.64632 | 1033 ft | 150 kts | 201° |
| 2026-04-27 15:54 | 64.22539 | -51.65355 | 820 ft | 142 kts | 200° |
| 2026-04-27 15:55 | 64.21561 | -51.66085 | 633 ft | 151 kts | 201° |
| 2026-04-27 15:55 | 64.20565 | -51.66831 | 420 ft | 149 kts | 201° |
| 2026-04-27 15:55 | 64.19617 | -51.67552 | 287 ft | 146 kts | 199° |
| 2026-04-27 15:55 | 64.18896 | -51.68089 | 284 ft | 64 kts | 197° |
| 2026-04-27 15:56 | 64.18672 | -51.68206 | 282 ft | 13 kts | 155° |
| 2026-04-27 15:56 | 64.18625 | -51.67969 | 281 ft | 3 kts | 112° |
| 2026-04-27 15:56 | 64.18616 | -51.67919 | 282 ft | 7 kts | 108° |
| 2026-04-27 15:56 | 64.18608 | -51.67858 | 282 ft | 1 kts | 107° |
| 2026-04-27 15:57 | 64.18608 | -51.67857 | 281 ft | 0 kts | 106° |
| 2026-04-27 15:57 | 64.18607 | -51.67855 | 281 ft | 0 kts | 110° |
| 2026-04-27 15:57 | 64.18596 | -51.67822 | 284 ft | 7 kts | 131° |
| 2026-04-27 15:58 | 64.18566 | -51.67777 | 282 ft | 5 kts | 147° |
| 2026-04-27 15:58 | 64.18557 | -51.67764 | 282 ft | 0 kts | 147° |
| 2026-04-27 15:58 | 64.18554 | -51.67759 | 282 ft | 2 kts | 147° |
| 2026-04-27 15:58 | 64.18550 | -51.67754 | 282 ft | 0 kts | 147° |